createdAt,value
2022-09-01T00:01:03.382Z,70.30
2022-09-01T00:03:31.921Z,70.40
2022-09-01T00:05:58.576Z,70.70
2022-09-01T00:08:25.224Z,71.00
2022-09-01T00:10:51.842Z,71.30
2022-09-01T00:13:18.442Z,71.50
2022-09-01T00:15:45.214Z,71.70
2022-09-01T00:18:12.567Z,72.00
2022-09-01T00:20:39.334Z,72.30
2022-09-01T00:23:05.964Z,72.40
2022-09-01T00:25:32.592Z,72.70
2022-09-01T00:28:00.143Z,72.80
2022-09-01T00:30:26.979Z,73.10
2022-09-01T00:32:53.621Z,73.30
2022-09-01T00:35:20.456Z,73.60
2022-09-01T00:37:47.483Z,73.80
2022-09-01T00:40:15.707Z,73.90
2022-09-01T00:42:42.970Z,74.20
2022-09-01T00:45:10.339Z,74.40
2022-09-01T00:47:37.579Z,74.50
2022-09-01T00:50:05.923Z,74.70
2022-09-01T00:52:35.263Z,74.80
2022-09-01T00:55:04.475Z,75.10
2022-09-01T00:57:31.171Z,75.10
2022-09-01T01:00:00.763Z,75.20
2022-09-01T01:02:27.591Z,75.30
2022-09-01T01:04:56.126Z,75.70
2022-09-01T01:07:23.037Z,75.80
2022-09-01T01:09:50.161Z,76.00
2022-09-01T01:12:18.329Z,76.10
2022-09-01T01:14:47.904Z,76.30
2022-09-01T01:17:14.488Z,76.30
2022-09-01T01:20:01.602Z,76.40
2022-09-01T01:22:50.095Z,76.60
2022-09-01T01:25:18.934Z,76.60
2022-09-01T01:27:46.113Z,76.90
2022-09-01T01:30:14.487Z,77.00
2022-09-01T01:32:43.023Z,77.30
2022-09-01T01:35:14.791Z,77.20
2022-09-01T01:37:45.709Z,77.30
2022-09-01T01:40:15.674Z,77.60
2022-09-01T01:42:44.140Z,77.70
2022-09-01T01:45:13.000Z,78.50
2022-09-01T01:47:39.639Z,78.00
2022-09-01T01:50:09.338Z,78.10
2022-09-01T01:52:36.772Z,78.20
2022-09-01T01:55:10.845Z,78.30
2022-09-01T01:57:48.746Z,78.40
2022-09-01T02:00:28.729Z,78.50
2022-09-01T02:02:58.110Z,78.60
2022-09-01T02:05:28.645Z,78.70
2022-09-01T02:07:56.619Z,78.90
2022-09-01T02:10:26.763Z,79.00
2022-09-01T02:12:53.466Z,79.10
2022-09-01T02:15:20.329Z,79.10
2022-09-01T02:17:47.098Z,79.30
2022-09-01T02:20:15.990Z,79.40
2022-09-01T02:22:44.468Z,79.50
2022-09-01T02:25:11.752Z,79.60
2022-09-01T02:27:39.453Z,79.70
2022-09-01T02:30:10.833Z,79.80
2022-09-01T02:32:38.018Z,79.80
2022-09-01T02:35:07.241Z,79.80
2022-09-01T02:37:34.402Z,79.90
2022-09-01T02:40:02.061Z,79.90
2022-09-01T02:42:30.208Z,80.00
2022-09-01T02:44:58.591Z,80.10
2022-09-01T02:47:28.375Z,80.30
2022-09-01T02:49:56.385Z,80.40
2022-09-01T02:52:23.711Z,80.40
2022-09-01T02:54:50.635Z,80.40
2022-09-01T02:57:17.660Z,80.60
2022-09-01T02:59:47.475Z,80.80
2022-09-01T03:02:14.063Z,80.80
2022-09-01T03:04:40.845Z,80.90
2022-09-01T03:07:09.201Z,81.00
2022-09-01T03:09:36.800Z,81.10
2022-09-01T03:12:07.054Z,81.20
2022-09-01T03:14:34.343Z,81.30
2022-09-01T03:17:00.979Z,81.40
2022-09-01T03:19:32.234Z,81.30
2022-09-01T03:22:00.037Z,81.50
2022-09-01T03:24:29.200Z,81.50
2022-09-01T03:26:56.491Z,81.40
2022-09-01T03:29:23.155Z,81.30
2022-09-01T03:31:50.074Z,81.40
2022-09-01T03:34:21.589Z,81.40
2022-09-01T03:36:50.803Z,81.40
2022-09-01T03:39:27.095Z,81.40
2022-09-01T03:41:55.254Z,81.40
2022-09-01T03:44:22.163Z,81.30
2022-09-01T03:46:48.808Z,81.30
2022-09-01T03:49:24.821Z,81.30
2022-09-01T03:51:53.833Z,81.30
2022-09-01T03:54:23.206Z,81.40
2022-09-01T03:56:50.774Z,81.50
2022-09-01T03:59:19.399Z,81.50
2022-09-01T04:01:47.814Z,81.50
2022-09-01T04:04:16.423Z,81.60
2022-09-01T04:06:44.433Z,81.60
2022-09-01T04:09:11.571Z,81.60
2022-09-01T04:11:45.764Z,81.60
2022-09-01T04:14:14.787Z,81.70
2022-09-01T04:17:01.952Z,82.00
2022-09-01T04:19:30.469Z,82.10
2022-09-01T04:21:59.841Z,82.10
2022-09-01T04:24:30.987Z,82.90
2022-09-01T04:27:00.215Z,82.20
2022-09-01T04:29:29.953Z,82.30
2022-09-01T04:32:01.900Z,82.30
2022-09-01T04:34:37.063Z,82.20
2022-09-01T04:37:08.728Z,82.20
2022-09-01T04:39:36.781Z,82.20
2022-09-01T04:42:08.990Z,82.30
2022-09-01T04:44:36.622Z,82.40
2022-09-01T04:47:10.769Z,82.50
2022-09-01T04:49:37.535Z,82.70
2022-09-01T04:52:05.043Z,82.80
2022-09-01T04:54:32.826Z,82.80
2022-09-01T04:56:59.570Z,83.00
2022-09-01T04:59:30.025Z,83.00
2022-09-01T05:02:00.626Z,83.20
2022-09-01T05:04:28.708Z,83.40
2022-09-01T05:07:00.837Z,83.50
2022-09-01T05:09:38.453Z,83.50
2022-09-01T05:12:15.920Z,83.50
2022-09-01T05:14:48.237Z,83.50
2022-09-01T05:17:18.556Z,83.80
2022-09-01T05:19:47.652Z,84.00
2022-09-01T05:22:15.658Z,84.00
2022-09-01T05:24:46.519Z,84.00
2022-09-01T05:27:15.124Z,83.90
2022-09-01T05:29:45.774Z,83.80
2022-09-01T05:32:13.069Z,83.70
2022-09-01T05:34:40.874Z,83.60
2022-09-01T05:37:13.052Z,83.40
2022-09-01T05:39:40.207Z,83.30
2022-09-01T05:42:10.022Z,83.30
2022-09-01T05:44:43.947Z,83.30
2022-09-01T05:47:20.300Z,83.30
2022-09-01T05:49:50.101Z,83.30
2022-09-01T05:52:17.366Z,83.20
2022-09-01T05:54:47.233Z,83.10
2022-09-01T05:57:33.292Z,82.90
2022-09-01T06:00:02.168Z,82.70
2022-09-01T06:02:30.807Z,82.60
2022-09-01T06:04:59.789Z,82.60
2022-09-01T06:07:31.178Z,82.50
2022-09-01T06:10:00.367Z,82.40
2022-09-01T06:12:28.960Z,82.30
2022-09-01T06:14:56.145Z,82.00
2022-09-01T06:17:25.628Z,81.70
2022-09-01T06:19:55.632Z,81.80
2022-09-01T06:22:23.689Z,81.70
2022-09-01T06:24:56.649Z,81.70
2022-09-01T06:27:27.898Z,81.70
2022-09-01T06:29:57.999Z,81.30
2022-09-01T06:32:25.867Z,81.20
2022-09-01T06:34:53.817Z,81.20
2022-09-01T06:37:22.859Z,81.20
2022-09-01T06:39:52.921Z,81.20
2022-09-01T06:42:20.248Z,81.10
2022-09-01T06:44:52.835Z,81.10
2022-09-01T06:47:20.377Z,81.00
2022-09-01T06:49:47.338Z,80.80
2022-09-01T06:52:20.903Z,80.80
2022-09-01T06:54:48.794Z,80.70
2022-09-01T07:00:20.450Z,80.50
2022-09-01T07:02:53.412Z,80.40
2022-09-01T07:14:26.839Z,79.20
2022-09-01T07:17:22.928Z,79.20
2022-09-01T07:19:48.880Z,78.60
2022-09-01T07:25:12.096Z,78.10
2022-09-01T07:27:52.172Z,78.10
2022-09-01T07:30:24.186Z,78.10
2022-09-01T07:32:54.003Z,78.00
2022-09-01T07:35:22.721Z,78.00
2022-09-01T07:43:56.317Z,77.40
2022-09-01T07:46:42.344Z,77.20
2022-09-01T07:49:35.454Z,77.10
2022-09-01T07:52:03.879Z,74.80
2022-09-01T07:54:31.720Z,75.90
2022-09-01T07:56:59.249Z,75.50
2022-09-01T07:59:27.953Z,75.10
2022-09-01T08:02:13.842Z,74.70
2022-09-01T08:04:42.841Z,74.50
2022-09-01T08:07:15.467Z,74.50
2022-09-01T08:09:44.192Z,74.30
2022-09-01T08:12:12.819Z,74.40
2022-09-01T08:14:46.586Z,74.40
2022-09-01T08:17:18.050Z,73.70
2022-09-01T08:20:03.768Z,72.90
2022-09-01T08:22:48.962Z,73.00
2022-09-01T08:25:25.093Z,72.50
2022-09-01T08:27:59.767Z,72.10
2022-09-01T08:30:27.748Z,72.20
2022-09-01T08:32:54.681Z,72.50
2022-09-01T08:35:22.197Z,72.30
2022-09-01T08:37:48.976Z,72.20
2022-09-01T08:40:20.513Z,71.80
2022-09-01T08:42:57.523Z,71.60
2022-09-01T08:45:30.994Z,71.60
2022-09-01T08:48:57.201Z,71.50
2022-09-01T08:50:57.110Z,70.20
2022-09-01T08:53:35.995Z,70.70
2022-09-01T08:56:02.975Z,70.50
2022-09-01T08:58:31.041Z,70.50
2022-09-01T09:01:27.472Z,70.70
2022-09-01T09:04:03.705Z,70.50
2022-09-01T09:06:37.530Z,69.60
2022-09-01T09:09:06.170Z,69.50
2022-09-01T09:11:41.590Z,68.50
2022-09-01T09:14:11.379Z,67.90
2022-09-01T09:16:47.751Z,68.20
2022-09-01T09:19:21.218Z,68.10
2022-09-01T09:21:49.619Z,67.60
2022-09-01T09:24:22.654Z,65.10
2022-09-01T09:26:54.131Z,65.20
2022-09-01T09:29:22.208Z,65.30
2022-09-01T09:32:01.956Z,63.90
2022-09-01T09:34:34.146Z,63.50
2022-09-01T09:37:01.376Z,63.00
2022-09-01T09:39:29.491Z,63.20
2022-09-01T09:42:09.034Z,64.40
2022-09-01T09:44:43.785Z,62.90
2022-09-01T09:47:33.492Z,62.90
2022-09-01T09:50:20.081Z,62.60
2022-09-01T09:52:48.105Z,61.90
2022-09-01T09:55:22.270Z,61.80
2022-09-01T09:57:50.614Z,60.80
2022-09-01T10:00:24.480Z,60.30
2022-09-01T10:02:54.629Z,58.70
2022-09-01T10:05:27.867Z,60.00
2022-09-01T10:07:55.814Z,59.60
2022-09-01T10:10:38.500Z,59.20
2022-09-01T10:13:08.029Z,59.40
2022-09-01T10:15:35.428Z,59.50
2022-09-01T10:18:20.593Z,59.70
2022-09-01T10:21:08.161Z,58.90
2022-09-01T10:23:37.708Z,57.20
2022-09-01T10:26:09.707Z,56.80
2022-09-01T10:28:41.197Z,56.00
2022-09-01T10:31:17.196Z,55.50
2022-09-01T10:33:44.093Z,54.60
2022-09-01T10:36:10.872Z,53.90
2022-09-01T10:38:39.145Z,53.70
2022-09-01T10:41:13.949Z,54.50
2022-09-01T10:43:42.768Z,53.40
2022-09-01T10:46:15.910Z,52.70
2022-09-01T10:48:48.387Z,53.20
2022-09-01T10:51:28.111Z,53.20
2022-09-01T10:54:03.117Z,53.20
2022-09-01T10:56:36.591Z,52.80
2022-09-01T10:59:40.221Z,52.30
2022-09-01T11:02:28.160Z,52.50
2022-09-01T11:04:55.532Z,51.70
2022-09-01T11:07:49.517Z,52.00
2022-09-01T11:10:11.893Z,52.00
2022-09-01T11:12:38.595Z,51.60
2022-09-01T11:15:06.979Z,51.40
2022-09-01T11:17:38.013Z,51.30
2022-09-01T11:20:08.980Z,49.00
2022-09-01T11:22:41.473Z,50.50
2022-09-01T11:25:14.110Z,50.30
2022-09-01T11:27:49.978Z,50.10
2022-09-01T11:30:31.463Z,50.00
2022-09-01T11:33:13.367Z,50.00
2022-09-01T11:35:40.006Z,47.80
2022-09-01T11:38:07.738Z,45.80
2022-09-01T11:40:36.033Z,45.00
2022-09-01T11:43:06.878Z,45.80
2022-09-01T11:45:48.897Z,46.80
2022-09-01T11:48:16.495Z,46.40
2022-09-01T11:50:43.732Z,46.90
2022-09-01T11:53:13.241Z,47.00
2022-09-01T11:55:44.162Z,46.10
2022-09-01T11:58:28.041Z,46.30
2022-09-01T12:00:56.093Z,43.30
2022-09-01T12:03:25.626Z,44.90
2022-09-01T12:05:59.192Z,45.60
2022-09-01T12:08:27.525Z,45.50
2022-09-01T12:11:04.953Z,45.20
2022-09-01T12:13:31.559Z,44.80
2022-09-01T12:16:18.478Z,44.90
2022-09-01T12:18:48.089Z,44.90
2022-09-01T12:21:26.274Z,44.50
2022-09-01T12:23:53.665Z,44.20
2022-09-01T12:26:27.246Z,44.00
2022-09-01T12:28:54.713Z,44.40
2022-09-01T12:31:25.682Z,43.40
2022-09-01T12:33:53.507Z,43.50
2022-09-01T12:36:31.750Z,43.40
2022-09-01T12:39:17.247Z,43.50
2022-09-01T12:42:00.920Z,43.90
2022-09-01T12:44:28.707Z,43.50
2022-09-01T12:46:57.872Z,42.80
2022-09-01T12:49:28.795Z,43.10
2022-09-01T12:52:16.144Z,42.20
2022-09-01T12:54:42.811Z,41.70
2022-09-01T12:57:27.568Z,42.00
2022-09-01T13:00:13.001Z,42.20
2022-09-01T13:02:42.004Z,41.70
2022-09-01T13:05:42.081Z,41.40
2022-09-01T13:08:19.864Z,40.70
2022-09-01T13:10:48.802Z,41.20
2022-09-01T13:13:15.956Z,40.60
2022-09-01T13:15:45.287Z,40.20
2022-09-01T13:18:12.413Z,40.10
2022-09-01T13:20:39.020Z,40.20
2022-09-01T13:23:05.618Z,40.30
2022-09-01T13:25:32.321Z,40.00
2022-09-01T13:28:02.789Z,39.90
2022-09-01T13:30:29.941Z,39.70
2022-09-01T13:35:43.752Z,39.20
2022-09-01T13:38:10.387Z,38.60
2022-09-01T13:40:37.491Z,38.10
2022-09-01T13:43:05.242Z,38.30
2022-09-01T13:45:31.994Z,37.90
2022-09-01T13:53:32.934Z,37.00
2022-09-01T13:55:59.612Z,37.00
2022-09-01T13:58:26.275Z,36.90
2022-09-01T14:00:52.982Z,37.00
2022-09-01T14:03:22.052Z,37.10
2022-09-01T14:05:49.689Z,36.80
2022-09-01T14:08:18.108Z,36.20
2022-09-01T14:10:48.788Z,36.10
2022-09-01T14:13:15.753Z,35.90
2022-09-01T14:15:42.607Z,35.30
2022-09-01T14:18:09.206Z,35.40
2022-09-01T14:20:39.487Z,35.70
2022-09-01T14:23:06.607Z,35.60
2022-09-01T14:25:33.453Z,34.10
2022-09-01T14:28:01.886Z,34.60
2022-09-01T14:30:31.633Z,34.20
2022-09-01T14:33:02.613Z,33.80
2022-09-01T14:35:33.147Z,34.40
2022-09-01T14:38:00.804Z,34.10
2022-09-01T14:40:28.814Z,33.50
2022-09-01T14:42:55.516Z,33.50
2022-09-01T14:45:23.601Z,33.70
2022-09-01T14:47:51.288Z,33.80
2022-09-01T14:50:22.736Z,33.40
2022-09-01T14:52:52.685Z,33.60
2022-09-01T14:55:19.509Z,33.10
2022-09-01T14:57:46.142Z,32.60
2022-09-01T15:00:13.264Z,32.50
2022-09-01T15:02:40.975Z,32.30
2022-09-01T15:05:08.214Z,32.20
2022-09-01T15:07:35.478Z,32.20
2022-09-01T15:10:02.286Z,31.80
2022-09-01T15:12:30.817Z,31.90
2022-09-01T15:14:58.822Z,30.20
2022-09-01T15:17:25.991Z,29.50
2022-09-01T15:19:52.883Z,30.80
2022-09-01T15:22:19.990Z,30.90
2022-09-01T15:24:46.947Z,31.00
2022-09-01T15:27:13.591Z,30.60
2022-09-01T15:29:47.914Z,30.80
2022-09-01T15:32:20.958Z,30.70
2022-09-01T15:34:55.015Z,30.70
2022-09-01T15:37:21.619Z,30.70
2022-09-01T15:39:48.279Z,30.50
2022-09-01T15:42:17.208Z,30.30
2022-09-01T15:44:44.193Z,30.00
2022-09-01T15:47:10.925Z,29.70
2022-09-01T15:49:37.666Z,29.90
2022-09-01T15:52:04.253Z,29.50
2022-09-01T15:54:30.963Z,29.10
2022-09-01T15:56:57.624Z,29.00
2022-09-01T15:59:24.283Z,28.80
2022-09-01T16:01:53.088Z,28.30
2022-09-01T16:04:24.088Z,28.00
2022-09-01T16:06:56.421Z,28.20
2022-09-01T16:09:23.215Z,27.90
2022-09-01T16:11:49.972Z,27.40
2022-09-01T16:14:16.718Z,27.10
2022-09-01T16:17:05.250Z,26.70
2022-09-01T16:19:31.961Z,26.50
2022-09-01T16:22:07.876Z,26.20
2022-09-01T16:24:39.571Z,25.70
2022-09-01T16:27:07.882Z,25.20
2022-09-01T16:29:40.994Z,24.80
2022-09-01T16:32:11.458Z,24.50
2022-09-01T16:34:42.242Z,24.30
2022-09-01T16:37:12.639Z,24.30
2022-09-01T16:39:39.339Z,24.30
2022-09-01T16:42:27.907Z,24.00
2022-09-01T16:45:03.729Z,24.20
2022-09-01T16:47:34.379Z,23.90
2022-09-01T16:50:10.334Z,24.00
2022-09-01T16:52:40.098Z,24.20
2022-09-01T16:55:19.818Z,24.20
2022-09-01T16:57:55.106Z,24.20
2022-09-01T17:00:29.695Z,24.10
2022-09-01T17:03:02.390Z,24.30
2022-09-01T17:05:33.363Z,24.70
2022-09-01T17:08:08.473Z,25.10
2022-09-01T17:10:41.040Z,25.40
2022-09-01T17:13:16.952Z,25.80
2022-09-01T17:15:47.854Z,26.30
2022-09-01T17:18:22.403Z,26.60
2022-09-01T17:20:57.827Z,27.20
2022-09-01T17:23:30.205Z,27.70
2022-09-01T17:26:01.566Z,28.20
2022-09-01T17:28:34.010Z,28.70
2022-09-01T17:31:05.300Z,29.10
2022-09-01T17:33:45.116Z,29.50
2022-09-01T17:36:18.569Z,29.90
2022-09-01T17:39:04.193Z,30.40
2022-09-01T17:41:44.105Z,30.70
2022-09-01T17:44:17.898Z,31.40
2022-09-01T17:46:44.630Z,31.80
2022-09-01T17:49:22.846Z,32.00
2022-09-01T17:52:00.120Z,32.40
2022-09-01T17:54:42.657Z,32.90
2022-09-01T17:57:17.210Z,33.10
2022-09-01T17:59:53.224Z,33.50
2022-09-01T18:02:28.314Z,33.90
2022-09-01T18:05:09.466Z,34.50
2022-09-01T18:07:36.421Z,34.70
2022-09-01T18:10:05.192Z,34.80
2022-09-01T18:12:35.620Z,35.20
2022-09-01T18:15:08.631Z,35.40
2022-09-01T18:17:55.495Z,35.60
2022-09-01T18:20:22.159Z,36.00
2022-09-01T18:23:04.550Z,36.00
2022-09-01T18:25:37.308Z,36.30
2022-09-01T18:28:04.201Z,36.50
2022-09-01T18:30:52.026Z,36.60
2022-09-01T18:33:30.046Z,36.90
2022-09-01T18:36:03.341Z,37.10
2022-09-01T18:38:30.021Z,37.20
2022-09-01T18:40:59.690Z,37.60
2022-09-01T18:43:30.698Z,37.90
2022-09-01T18:46:05.155Z,38.10
2022-09-01T18:51:11.957Z,38.60
2022-09-01T18:53:38.793Z,38.80
2022-09-01T18:56:05.626Z,39.00
2022-09-01T18:58:36.844Z,39.10
2022-09-01T19:01:07.627Z,39.40
2022-09-01T19:03:41.609Z,39.70
2022-09-01T19:06:22.355Z,40.10
2022-09-01T19:09:14.318Z,40.20
2022-09-01T19:11:58.093Z,40.80
2022-09-01T19:17:10.611Z,40.50
2022-09-01T19:19:47.968Z,40.60
2022-09-01T19:22:17.332Z,40.70
2022-09-01T19:24:49.323Z,40.90
2022-09-01T19:27:19.971Z,40.90
2022-09-01T19:29:55.952Z,41.00
2022-09-01T19:32:23.759Z,41.10
2022-09-01T19:34:55.637Z,41.30
2022-09-01T19:37:22.689Z,41.30
2022-09-01T19:39:54.273Z,41.40
2022-09-01T19:42:40.253Z,41.60
2022-09-01T19:45:33.287Z,41.60
2022-09-01T19:48:09.343Z,41.80
2022-09-01T19:50:54.908Z,41.90
2022-09-01T19:53:40.228Z,42.10
2022-09-01T19:56:07.243Z,42.30
2022-09-01T19:58:44.544Z,42.30
2022-09-01T20:01:13.196Z,42.40
2022-09-01T20:03:53.536Z,42.60
2022-09-01T20:06:34.054Z,42.80
2022-09-01T20:09:05.854Z,42.80
2022-09-01T20:11:50.622Z,42.90
2022-09-01T20:14:36.147Z,43.10
2022-09-01T20:17:05.051Z,43.40
2022-09-01T20:19:38.230Z,43.40
2022-09-01T20:22:24.566Z,43.40
2022-09-01T20:25:03.378Z,43.40
2022-09-01T20:27:34.816Z,43.40
2022-09-01T20:30:03.278Z,43.40
2022-09-01T20:32:32.844Z,43.60
2022-09-01T20:35:02.943Z,43.60
2022-09-01T20:37:34.333Z,43.80
2022-09-01T20:40:13.422Z,43.80
2022-09-01T20:42:46.142Z,43.90
2022-09-01T20:45:12.808Z,43.90
2022-09-01T20:47:39.485Z,44.20
2022-09-01T20:50:10.578Z,44.30
2022-09-01T20:53:00.679Z,44.50
2022-09-01T20:55:36.506Z,44.50
2022-09-01T20:58:08.979Z,44.60
2022-09-01T21:00:55.851Z,44.80
2022-09-01T21:03:22.555Z,44.90
2022-09-01T21:06:23.985Z,44.80
2022-09-01T21:09:03.006Z,44.90
2022-09-01T21:11:40.838Z,44.80
2022-09-01T21:14:15.941Z,44.90
2022-09-01T21:16:42.582Z,45.00
2022-09-01T21:19:15.483Z,45.20
2022-09-01T21:21:54.355Z,45.30
2022-09-01T21:24:20.967Z,45.50
2022-09-01T21:26:49.054Z,45.50
2022-09-01T21:29:18.783Z,45.70
2022-09-01T21:31:46.893Z,45.70
2022-09-01T21:34:16.856Z,45.70
2022-09-01T21:36:43.764Z,45.70
2022-09-01T21:39:10.523Z,45.70
2022-09-01T21:41:39.770Z,45.80
2022-09-01T21:44:06.518Z,45.80
2022-09-01T21:46:33.251Z,45.90
2022-09-01T21:48:59.888Z,45.90
2022-09-01T21:51:26.500Z,46.00
2022-09-01T21:53:53.122Z,46.10
2022-09-01T21:56:25.768Z,46.30
2022-09-01T21:58:52.862Z,46.30
2022-09-01T22:01:19.524Z,46.30
2022-09-01T22:03:47.924Z,46.30
2022-09-01T22:06:14.509Z,46.40
2022-09-01T22:08:41.833Z,46.30
2022-09-01T22:11:09.746Z,46.40
2022-09-01T22:13:36.537Z,46.60
2022-09-01T22:16:03.725Z,46.70
2022-09-01T22:18:30.484Z,46.80
2022-09-01T22:21:07.532Z,46.70
2022-09-01T22:23:34.488Z,46.70
2022-09-01T22:26:01.174Z,46.90
2022-09-01T22:28:28.099Z,46.90
2022-09-01T22:30:54.750Z,47.00
2022-09-01T22:33:22.477Z,46.90
2022-09-01T22:35:50.683Z,46.90
2022-09-01T22:38:17.646Z,46.90
2022-09-01T22:40:46.046Z,46.90
2022-09-01T22:43:13.708Z,46.90
2022-09-01T22:45:47.428Z,47.00
2022-09-01T22:48:14.959Z,47.20
2022-09-01T22:50:42.704Z,47.20
2022-09-01T22:53:09.969Z,47.30
2022-09-01T22:55:37.943Z,47.40
2022-09-01T22:58:05.096Z,47.30
2022-09-01T23:00:31.727Z,47.50
2022-09-01T23:02:58.917Z,47.60
2022-09-01T23:05:25.581Z,47.80
2022-09-01T23:07:52.959Z,47.60
2022-09-01T23:10:19.814Z,47.60
2022-09-01T23:12:46.466Z,47.70
2022-09-01T23:15:13.155Z,47.90
2022-09-01T23:17:39.801Z,48.00
2022-09-01T23:20:08.728Z,48.00
2022-09-01T23:22:35.459Z,48.00
2022-09-01T23:25:02.195Z,48.80
2022-09-01T23:27:28.800Z,48.20
2022-09-01T23:29:55.395Z,48.10
2022-09-01T23:32:22.076Z,48.10
2022-09-01T23:34:48.738Z,48.30
2022-09-01T23:37:15.591Z,48.30
2022-09-01T23:39:42.491Z,48.40
2022-09-01T23:42:09.166Z,48.40
2022-09-01T23:44:36.868Z,48.60
2022-09-01T23:47:03.558Z,48.60
2022-09-01T23:49:30.187Z,48.60
2022-09-01T23:51:56.814Z,48.70
2022-09-01T23:54:23.438Z,48.80
2022-09-01T23:56:50.078Z,49.70
2022-09-01T23:59:16.710Z,49.20
